Time;durP1;ratioP1;P1;durP2;ratioP2;P2;SDS_P1;SDS_P2;PMS_P1;PMS_P2;Temp;Humidity;BMP_temperature;BMP_pressure;BME280_temperature;BME280_humidity;BME280_pressure;Samples;Min_cycle;Max_cycle;Signal;HPM_P1;HPM_P2
2021/01/17 00:01:07;;;;;;;6.13;3.93;;;;;;;-13.79;100.00;99878.68;1747297;82;21675;-69
2021/01/17 00:03:35;;;;;;;6.33;3.67;;;;;;;-13.86;100.00;99877.05;1758803;81;21597;-70
2021/01/17 00:06:03;;;;;;;6.77;3.37;;;;;;;-13.90;100.00;99878.84;1758679;81;21711;-70
2021/01/17 00:08:31;;;;;;;4.07;1.70;;;;;;;-13.95;100.00;99875.45;1764670;81;21678;-70
2021/01/17 00:10:59;;;;;;;1.03;1.03;;;;;;;-13.99;100.00;99878.52;1775999;79;21879;-69
2021/01/17 00:13:27;;;;;;;1.80;1.70;;;;;;;-14.04;100.00;99874.28;1766388;81;21696;-69
2021/01/17 00:15:55;;;;;;;2.37;2.27;;;;;;;-14.09;100.00;99872.18;1736438;82;21654;-68
2021/01/17 00:18:23;;;;;;;4.53;3.60;;;;;;;-14.14;100.00;99860.57;1760304;81;21697;-70
2021/01/17 00:20:53;;;;;;;11.40;3.40;;;;;;;-14.18;100.00;99868.84;1756794;80;21793;-68
2021/01/17 00:23:21;;;;;;;11.07;4.10;;;;;;;-14.26;100.00;99869.38;1758428;81;21679;-68
2021/01/17 00:25:49;;;;;;;9.63;3.80;;;;;;;-14.29;100.00;99867.27;1769901;81;21711;-69
2021/01/17 00:28:17;;;;;;;1.40;1.30;;;;;;;-14.34;100.00;99861.70;1758557;81;21611;-70
2021/01/17 00:30:46;;;;;;;6.00;1.93;;;;;;;-14.34;100.00;99866.89;1769927;81;21500;-70
2021/01/17 00:33:14;;;;;;;3.97;3.50;;;;;;;-14.35;100.00;99864.31;1758550;81;21647;-69
2021/01/17 00:35:43;;;;;;;2.40;1.80;;;;;;;-14.34;100.00;99864.70;1770126;81;21678;-68
2021/01/17 00:38:11;;;;;;;5.70;3.33;;;;;;;-14.36;100.00;99863.87;1758550;81;21697;-69
2021/01/17 00:40:39;;;;;;;6.57;2.30;;;;;;;-14.43;100.00;99871.33;1769962;81;22279;-69
2021/01/17 00:43:07;;;;;;;1.17;1.10;;;;;;;-14.56;100.00;99870.63;1758643;81;21666;-69
2021/01/17 00:45:36;;;;;;;4.30;3.30;;;;;;;-14.58;100.00;99878.91;1769882;80;21706;-68
2021/01/17 00:48:06;;;;;;;3.40;1.57;;;;;;;-14.62;100.00;99870.30;1758685;81;21626;-68
2021/01/17 00:50:34;;;;;;;4.37;2.17;;;;;;;-14.64;100.00;99864.69;1774139;80;21712;-69
2021/01/17 00:53:04;;;;;;;1.37;1.27;;;;;;;-14.66;100.00;99869.04;1766749;80;22044;-68
2021/01/17 00:55:35;;;;;;;4.00;2.07;;;;;;;-14.77;100.00;99859.62;1785021;80;21832;-67
2021/01/17 00:58:05;;;;;;;3.13;2.27;;;;;;;-14.77;100.00;99859.62;1766637;80;21324;-68
2021/01/17 01:00:33;;;;;;;3.90;1.10;;;;;;;-14.83;100.00;99853.67;1789320;80;22189;-68
2021/01/17 01:03:03;;;;;;;2.27;2.17;;;;;;;-14.88;100.00;99849.82;1766683;81;21691;-68
2021/01/17 01:05:31;;;;;;;2.33;2.07;;;;;;;-14.88;100.00;99849.82;1794675;80;22244;-68
2021/01/17 01:07:59;;;;;;;1.23;1.20;;;;;;;-14.96;100.00;99852.92;1771760;81;21724;-68
2021/01/17 01:10:28;;;;;;;1.57;1.50;;;;;;;-14.96;100.00;99852.92;1771770;81;21601;-69
2021/01/17 01:12:56;;;;;;;16.73;2.50;;;;;;;-14.97;100.00;99852.52;1794819;80;21803;-69
2021/01/17 01:15:24;;;;;;;5.57;4.33;;;;;;;-15.04;100.00;99859.50;1762920;80;21686;-68
2021/01/17 01:17:55;;;;;;;3.13;2.93;;;;;;;-15.04;100.00;99859.50;1746933;82;21547;-68
2021/01/17 01:20:23;;;;;;;1.90;1.80;;;;;;;-15.11;100.00;99847.47;1746887;82;21470;-68
2021/01/17 01:22:51;;;;;;;6.17;3.30;;;;;;;-15.16;100.00;99853.98;1746995;82;21512;-68
2021/01/17 01:25:20;;;;;;;11.90;2.33;;;;;;;-15.20;100.00;99846.27;1747011;82;22214;-69
2021/01/17 01:27:48;;;;;;;2.50;1.20;;;;;;;-15.20;100.00;99846.27;1746857;81;21442;-68
2021/01/17 01:30:16;;;;;;;6.57;2.83;;;;;;;-15.26;100.00;99847.20;1746901;82;21490;-67
2021/01/17 01:32:48;;;;;;;3.67;2.53;;;;;;;-15.34;100.00;99849.84;1746996;82;21835;-69
2021/01/17 01:35:16;;;;;;;1.67;1.65;;;;;;;-15.34;100.00;99849.84;1741187;81;21394;-69
2021/01/17 01:37:44;;;;;;;2.57;2.37;;;;;;;-15.38;100.00;99852.49;1771141;81;21267;-68
2021/01/17 01:40:14;;;;;;;6.27;2.77;;;;;;;-15.39;100.00;99845.12;1771116;81;21464;-69
2021/01/17 01:42:43;;;;;;;7.10;2.77;;;;;;;-15.39;100.00;99828.72;1771205;81;21449;-69
2021/01/17 01:45:11;;;;;;;1.00;1.00;;;;;;;-15.36;100.00;99830.00;1771153;81;21448;-69
2021/01/17 01:47:39;;;;;;;2.77;2.40;;;;;;;-15.36;100.00;99830.00;1771268;81;21543;-69
2021/01/17 01:50:09;;;;;;;3.20;2.20;;;;;;;-15.39;100.00;99820.94;1741161;81;22008;-69
2021/01/17 01:52:37;;;;;;;4.13;3.23;;;;;;;-15.36;100.00;99830.00;1774661;80;21518;-69
2021/01/17 01:55:08;;;;;;;6.03;3.03;;;;;;;-15.36;100.00;99818.33;1774940;80;21349;-68
2021/01/17 01:57:35;;;;;;;3.70;2.33;;;;;;;-15.34;100.00;99817.87;1774996;80;21369;-68
2021/01/17 02:00:07;;;;;;;2.87;2.03;;;;;;;-15.36;100.00;99816.58;1775063;80;21370;-69
2021/01/17 02:02:46;;;;;;;2.57;2.37;;;;;;;-15.36;100.00;99816.58;1775044;80;22237;-69
2021/01/17 02:05:15;;;;;;;4.17;2.87;;;;;;;-15.31;100.00;99810.92;1774863;80;21420;-67
2021/01/17 02:08:20;;;;;;;3.33;1.73;;;;;;;-15.31;100.00;99810.92;1774968;80;21519;-68
2021/01/17 02:10:50;;;;;;;5.30;3.50;;;;;;;-15.30;100.00;99807.44;1755803;80;21695;-68
2021/01/17 02:13:31;;;;;;;12.40;4.30;;;;;;;-15.32;100.00;99807.04;1744423;81;21608;-68
2021/01/17 02:15:59;;;;;;;9.73;4.07;;;;;;;-15.32;100.00;99807.04;1684882;82;21594;-68
2021/01/17 02:18:27;;;;;;;14.23;4.30;;;;;;;-15.36;100.00;99807.51;1684685;85;21536;-67
2021/01/17 02:20:56;;;;;;;10.57;4.53;;;;;;;-15.43;100.00;99807.15;1684763;85;21459;-68
2021/01/17 02:23:43;;;;;;;3.40;3.10;;;;;;;-15.49;100.00;99808.48;1684599;85;21450;-69
2021/01/17 02:26:11;;;;;;;1.90;1.53;;;;;;;-15.52;100.00;99811.13;1684711;85;21850;-67
2021/01/17 02:28:39;;;;;;;1.07;1.07;;;;;;;-15.63;100.00;99801.27;1684724;85;21670;-68
2021/01/17 02:31:08;;;;;;;3.63;1.30;;;;;;;-15.66;100.00;99799.58;1684607;85;21440;-68
2021/01/17 02:33:38;;;;;;;1.47;1.37;;;;;;;-15.70;100.00;99800.49;1684679;85;21500;-69
2021/01/17 02:36:26;;;;;;;1.23;1.10;;;;;;;-15.70;100.00;99800.49;1684711;85;22249;-68
2021/01/17 02:39:52;;;;;;;4.13;1.37;;;;;;;-15.73;100.00;99800.06;1684757;85;21458;-68
2021/01/17 02:42:31;;;;;;;2.40;2.23;;;;;;;-15.76;100.00;99805.30;1852302;76;22724;-69
2021/01/17 02:45:00;;;;;;;0.70;0.70;;;;;;;-15.83;100.00;99811.41;1783217;80;21118;-68
2021/01/17 02:47:28;;;;;;;4.00;2.03;;;;;;;-15.89;100.00;99807.58;1855831;77;22246;-68
2021/01/17 02:50:00;;;;;;;5.70;4.00;;;;;;;-15.89;100.00;99807.58;1855492;77;21467;-68
2021/01/17 02:52:42;;;;;;;6.63;4.00;;;;;;;-15.99;100.00;99817.14;1855656;77;21342;-68
2021/01/17 02:55:10;;;;;;;4.40;3.33;;;;;;;-15.99;100.00;99817.14;1855411;77;21412;-68
2021/01/17 02:57:38;;;;;;;2.93;2.67;;;;;;;-16.01;100.00;99810.27;1855669;77;21806;-68
2021/01/17 03:00:09;;;;;;;2.70;1.63;;;;;;;-16.01;100.00;99810.27;1822944;77;21336;-69
2021/01/17 03:02:45;;;;;;;3.97;2.77;;;;;;;-16.08;100.00;99814.17;1855645;77;21411;-69
2021/01/17 03:05:21;;;;;;;1.63;1.53;;;;;;;-16.11;100.00;99819.81;1855459;77;21520;-68
2021/01/17 03:07:53;;;;;;;1.95;1.85;;;;;;;-16.18;100.00;99822.91;1824000;77;21750;-68
2021/01/17 03:10:22;;;;;;;5.20;2.03;;;;;;;-16.19;100.00;99830.67;1841091;77;20978;-68
2021/01/17 03:12:52;;;;;;;3.00;1.70;;;;;;;-16.25;100.00;99846.67;1822089;78;22169;-68
2021/01/17 03:15:20;;;;;;;2.93;1.43;;;;;;;-16.30;100.00;99844.54;1821378;78;21943;-68
2021/01/17 03:17:48;;;;;;;1.43;1.43;;;;;;;-16.31;100.00;99845.84;1820320;78;21896;-67
2021/01/17 03:20:18;;;;;;;3.93;2.17;;;;;;;-16.32;100.00;99842.81;1820342;78;21320;-69
2021/01/17 03:22:46;;;;;;;1.87;1.77;;;;;;;-16.33;100.00;99844.98;1820493;78;21264;-67
2021/01/17 03:25:14;;;;;;;1.73;1.60;;;;;;;-16.34;100.00;99846.73;1820303;78;21828;-68
2021/01/17 03:27:41;;;;;;;2.13;1.93;;;;;;;-16.33;100.00;99854.91;1820279;78;21340;-67
2021/01/17 03:30:11;;;;;;;3.20;1.63;;;;;;;-16.34;100.00;99855.79;1820338;78;22131;-69
2021/01/17 03:32:39;;;;;;;1.70;1.60;;;;;;;-16.32;100.00;99859.64;1820218;78;21182;-68
2021/01/17 03:35:09;;;;;;;3.03;2.70;;;;;;;-16.32;100.00;99859.64;1820241;78;21388;-68
2021/01/17 03:37:38;;;;;;;2.33;2.13;;;;;;;-16.30;100.00;99848.42;1820325;78;22216;-69
2021/01/17 03:40:07;;;;;;;1.33;1.23;;;;;;;-16.31;100.00;99846.69;1820171;78;21234;-69
2021/01/17 03:42:35;;;;;;;2.93;2.53;;;;;;;-16.34;100.00;99836.78;1820191;78;21278;-69
2021/01/17 03:45:06;;;;;;;3.90;3.07;;;;;;;-16.34;100.00;99836.78;1820220;78;21865;-69
2021/01/17 03:47:34;;;;;;;14.00;5.10;;;;;;;-16.35;100.00;99830.75;1820359;78;21343;-70
2021/01/17 03:50:03;;;;;;;6.37;4.43;;;;;;;-16.38;100.00;99836.38;1820396;78;21281;-67
2021/01/17 03:52:31;;;;;;;5.50;3.00;;;;;;;-16.38;100.00;99836.38;1820011;78;21790;-68
2021/01/17 03:54:59;;;;;;;8.00;4.13;;;;;;;-16.40;100.00;99840.72;1819842;78;21238;-68
2021/01/17 03:57:27;;;;;;;4.53;2.97;;;;;;;-16.46;100.00;99841.61;1819738;78;21296;-68
2021/01/17 03:59:55;;;;;;;2.50;2.00;;;;;;;-16.50;100.00;99830.41;1819748;78;21313;-68
2021/01/17 04:02:23;;;;;;;3.00;2.80;;;;;;;-16.51;100.00;99823.95;1814948;78;21340;-67
2021/01/17 04:04:53;;;;;;;2.77;1.27;;;;;;;-16.55;100.00;99804.98;1819825;78;22028;-68
2021/01/17 04:07:21;;;;;;;3.00;2.80;;;;;;;-16.61;100.00;99799.83;1819657;78;21228;-69
2021/01/17 04:09:49;;;;;;;4.07;2.90;;;;;;;-16.64;100.00;99807.59;1819993;78;21305;-68
2021/01/17 04:12:17;;;;;;;2.53;2.27;;;;;;;-16.69;100.00;99810.23;1821503;78;21343;-69
2021/01/17 04:14:45;;;;;;;4.83;2.40;;;;;;;-16.72;100.00;99824.46;1821359;77;22050;-69
2021/01/17 04:17:13;;;;;;;3.23;2.43;;;;;;;-16.74;100.00;99834.41;1821410;78;21372;-68
2021/01/17 04:19:44;;;;;;;2.43;1.97;;;;;;;-16.77;100.00;99842.17;1821446;78;21366;-68
2021/01/17 04:22:12;;;;;;;2.73;2.57;;;;;;;-16.77;100.00;99842.17;1846031;76;21301;-68
2021/01/17 04:24:40;;;;;;;4.40;2.83;;;;;;;-16.78;100.00;99852.08;1869593;76;21248;-68
2021/01/17 04:27:10;;;;;;;2.40;2.03;;;;;;;-16.76;100.00;99859.42;1869486;76;21355;-68
2021/01/17 04:29:38;;;;;;;3.20;1.77;;;;;;;-16.79;100.00;99858.98;1869481;76;21681;-68
2021/01/17 04:32:06;;;;;;;1.77;1.37;;;;;;;-16.82;100.00;99847.34;1869543;76;21712;-68
2021/01/17 04:34:35;;;;;;;1.07;1.07;;;;;;;-16.82;100.00;99847.34;1869509;76;21287;-68
2021/01/17 04:37:03;;;;;;;2.10;1.90;;;;;;;-16.86;100.00;99836.62;1839731;76;21302;-68
2021/01/17 04:39:31;;;;;;;11.43;2.10;;;;;;;-16.89;100.00;99837.92;1782753;80;22198;-69
2021/01/17 04:41:59;;;;;;;3.20;2.90;;;;;;;-16.91;100.00;99840.95;1823228;78;21777;-68
2021/01/17 04:44:35;;;;;;;0.93;0.93;;;;;;;-16.92;100.00;99836.22;1733093;80;21217;-66
2021/01/17 04:47:04;;;;;;;2.73;2.20;;;;;;;-16.91;100.00;99837.07;1758092;81;21436;-68
2021/01/17 04:49:37;;;;;;;3.97;2.53;;;;;;;-16.95;100.00;99831.05;1785789;80;21940;-68
2021/01/17 04:52:10;;;;;;;2.00;1.73;;;;;;;-16.99;100.00;99836.22;1785858;80;21358;-68
2021/01/17 04:54:38;;;;;;;1.77;1.67;;;;;;;-17.03;100.00;99837.95;1785571;80;21244;-68
2021/01/17 04:57:36;;;;;;;4.27;2.57;;;;;;;-17.05;100.00;99837.11;1785752;80;21257;-69
2021/01/17 05:00:10;;;;;;;3.27;2.67;;;;;;;-17.07;100.00;99831.94;1756271;81;21233;-67
2021/01/17 05:02:43;;;;;;;1.20;1.20;;;;;;;-17.10;100.00;99823.33;1759196;78;21447;-67
2021/01/17 05:05:22;;;;;;;1.43;1.33;;;;;;;-17.16;100.00;99828.53;1756116;81;21259;-68
2021/01/17 05:08:01;;;;;;;2.77;2.50;;;;;;;-17.19;100.00;99842.75;1724437;83;21224;-66
2021/01/17 05:10:38;;;;;;;7.25;3.30;;;;;;;-17.15;100.00;99848.33;1862725;75;27772;-67
2021/01/17 05:13:11;;;;;;;4.97;2.20;;;;;;;-17.18;100.00;99857.41;1861497;77;20906;-68
2021/01/17 05:15:41;;;;;;;2.20;2.10;;;;;;;-17.15;100.00;99858.27;1825849;77;21411;-68
2021/01/17 05:18:11;;;;;;;5.10;2.95;;;;;;;-17.15;100.00;99863.84;1736290;82;21319;-68
2021/01/17 05:20:41;;;;;;;3.17;2.97;;;;;;;-17.22;100.00;99867.75;1741580;80;21028;-67
2021/01/17 05:23:10;;;;;;;3.53;2.47;;;;;;;-17.24;100.00;99871.21;1759354;81;21268;-68
2021/01/17 05:25:39;;;;;;;3.33;3.13;;;;;;;-17.26;100.00;99867.33;1736249;82;21271;-68
2021/01/17 05:28:07;;;;;;;2.77;2.53;;;;;;;-17.27;100.00;99852.67;1689400;82;21773;-68
2021/01/17 05:30:35;;;;;;;3.30;3.00;;;;;;;-17.26;100.00;99856.11;1741621;82;21384;-69
2021/01/17 05:33:06;;;;;;;2.67;2.00;;;;;;;-17.26;100.00;99856.11;1741807;82;21258;-68
2021/01/17 05:35:34;;;;;;;4.65;3.52;;;;;;;-17.30;100.00;99854.41;1759582;81;21181;-68
2021/01/17 05:38:02;;;;;;;1.53;1.53;;;;;;;-17.32;100.00;99853.11;1736157;82;20953;-68
2021/01/17 05:40:34;;;;;;;1.70;1.60;;;;;;;-17.33;100.00;99853.11;1741259;82;21646;-68
2021/01/17 05:43:03;;;;;;;2.27;2.07;;;;;;;-17.32;100.00;99850.97;1759059;81;21191;-67
2021/01/17 05:45:31;;;;;;;1.87;1.77;;;;;;;-17.35;100.00;99838.89;1736007;82;21250;-69
2021/01/17 05:48:00;;;;;;;2.13;2.00;;;;;;;-17.36;100.00;99842.80;1741263;82;21230;-67
2021/01/17 05:50:33;;;;;;;3.87;2.47;;;;;;;-17.37;100.00;99844.49;1759177;81;21808;-68
2021/01/17 05:53:03;;;;;;;5.67;3.77;;;;;;;-17.39;100.00;99839.77;1736028;82;21252;-68
2021/01/17 05:55:34;;;;;;;1.33;1.23;;;;;;;-17.40;100.00;99835.48;1741224;82;21246;-67
2021/01/17 05:58:28;;;;;;;3.83;3.53;;;;;;;-17.41;100.00;99838.91;1759089;81;21253;-68
2021/01/17 06:01:15;;;;;;;;;;;;;;;-17.42;100.00;99846.22;1676618;85;21336;-67
2021/01/17 06:03:55;;;;;;;1.67;1.57;;;;;;;-17.42;100.00;99851.39;1674284;85;20181;-68
2021/01/17 06:06:30;;;;;;;2.60;2.37;;;;;;;-17.43;100.00;99844.52;1693649;84;22332;-67
2021/01/17 06:08:59;;;;;;;4.00;3.27;;;;;;;-17.44;100.00;99842.38;1693744;82;21226;-67
2021/01/17 06:11:28;;;;;;;0.77;0.77;;;;;;;-17.44;100.00;99839.79;1701314;83;21136;-69
2021/01/17 06:14:00;;;;;;;1.90;1.53;;;;;;;-17.42;100.00;99848.40;1728347;83;21254;-66
2021/01/17 06:16:39;;;;;;;2.50;2.23;;;;;;;-17.37;100.00;99850.11;1910863;75;22712;-67
2021/01/17 06:21:39;;;;;;;2.20;1.50;;;;;;;-17.43;100.00;99850.98;1756319;81;21674;-68
2021/01/17 06:24:09;;;;;;;3.70;3.33;;;;;;;-17.46;100.00;99847.95;1756227;81;21593;-67
2021/01/17 06:26:41;;;;;;;3.30;2.57;;;;;;;-17.48;100.00;99847.53;1756299;81;21232;-69
2021/01/17 06:29:10;;;;;;;2.98;1.85;;;;;;;-17.45;100.00;99838.50;1756312;81;21288;-67
2021/01/17 06:31:39;;;;;;;0.97;0.97;;;;;;;-17.43;100.00;99836.77;1756373;81;21036;-67
2021/01/17 06:34:14;;;;;;;3.27;2.67;;;;;;;-17.41;100.00;99834.59;1756297;81;21655;-68
2021/01/17 06:36:46;;;;;;;2.37;2.23;;;;;;;-17.35;100.00;99841.47;1756204;81;21254;-68
2021/01/17 06:39:24;;;;;;;3.00;1.83;;;;;;;-17.33;100.00;99845.35;1756325;81;21246;-68
2021/01/17 06:41:55;;;;;;;1.47;1.43;;;;;;;-17.30;100.00;99835.87;1756376;81;21836;-68
2021/01/17 06:44:33;;;;;;;7.93;1.93;;;;;;;-17.20;100.00;99832.84;1756325;81;21864;-67
2021/01/17 06:47:02;;;;;;;2.00;1.90;;;;;;;-17.18;100.00;99840.16;1756340;81;21276;-68
2021/01/17 06:49:33;;;;;;;3.63;2.97;;;;;;;-17.19;100.00;99834.99;1756137;81;21246;-67
2021/01/17 06:52:08;;;;;;;1.53;1.53;;;;;;;-17.07;100.00;99826.77;1845597;76;22814;-68
2021/01/17 06:54:53;;;;;;;6.00;3.80;;;;;;;-17.02;100.00;99829.34;1815714;78;20988;-66
2021/01/17 06:57:21;;;;;;;10.87;5.63;;;;;;;-16.97;100.00;99831.94;1815672;79;21710;-67
2021/01/17 06:59:51;;;;;;;2.27;1.93;;;;;;;-16.90;100.00;99821.99;1815777;79;21693;-68
2021/01/17 07:02:39;;;;;;;3.13;1.70;;;;;;;-16.79;100.00;99817.59;1767848;81;21213;-67
2021/01/17 07:05:25;;;;;;;2.47;2.23;;;;;;;-16.63;100.00;99818.39;1754557;81;21289;-68
2021/01/17 07:08:09;;;;;;;1.80;1.70;;;;;;;-16.50;100.00;99823.06;1699947;84;21283;-67
2021/01/17 07:10:45;;;;;;;4.63;3.10;;;;;;;-16.34;100.00;99831.61;1723027;83;21614;-68
2021/01/17 07:13:22;;;;;;;1.13;1.13;;;;;;;-16.29;100.00;99824.67;1845258;76;22386;-67
2021/01/17 07:15:50;;;;;;;4.00;2.63;;;;;;;-16.41;100.00;99824.74;1798506;78;20997;-67
2021/01/17 07:18:19;;;;;;;5.43;3.40;;;;;;;-16.41;100.00;99824.74;1783451;80;21323;-68
2021/01/17 07:20:48;;;;;;;4.63;2.70;;;;;;;-16.37;100.00;99833.79;1783320;80;21291;-67
2021/01/17 07:23:18;;;;;;;8.10;3.30;;;;;;;-16.24;100.00;99835.87;1783426;80;21342;-68
2021/01/17 07:25:48;;;;;;;3.80;2.23;;;;;;;-16.24;100.00;99835.87;1739610;82;22010;-68
2021/01/17 07:28:18;;;;;;;4.30;3.83;;;;;;;-16.21;100.00;99839.74;1739811;81;21267;-68
2021/01/17 07:31:04;;;;;;;2.50;1.13;;;;;;;-16.25;100.00;99849.70;1739918;82;21383;-67
2021/01/17 07:33:40;;;;;;;3.40;2.83;;;;;;;-16.28;100.00;99840.65;1739985;82;21429;-67
2021/01/17 07:36:15;;;;;;;2.60;2.13;;;;;;;-16.11;100.00;99834.94;1740025;82;21371;-68
2021/01/17 07:38:45;;;;;;;7.17;4.33;;;;;;;-16.11;100.00;99834.94;1740091;82;21539;-68
2021/01/17 07:41:14;;;;;;;2.20;2.03;;;;;;;-15.67;100.00;99838.91;1740056;82;21489;-68
2021/01/17 07:43:44;;;;;;;16.30;3.03;;;;;;;-15.56;100.00;99839.23;1740029;82;21340;-67
2021/01/17 07:46:18;;;;;;;4.87;3.92;;;;;;;-15.56;100.00;99839.23;1740088;82;21455;-68
2021/01/17 07:48:47;;;;;;;;;;;;;;;-15.54;100.00;99838.36;1742679;82;21089;-68
2021/01/17 07:51:15;;;;;;;3.40;1.90;;;;;;;-15.49;100.00;99843.48;1739756;82;20143;-68
2021/01/17 07:54:05;;;;;;;2.20;2.00;;;;;;;-15.40;100.00;99838.24;1740060;82;21358;-68
2021/01/17 07:56:34;;;;;;;2.77;2.27;;;;;;;-15.28;100.00;99847.62;1737081;82;21550;-69
2021/01/17 07:59:04;;;;;;;4.37;3.50;;;;;;;-15.27;100.00;99849.35;1739917;82;22150;-68
2021/01/17 08:01:39;;;;;;;12.10;6.37;;;;;;;-15.27;100.00;99849.35;1739287;82;21722;-68
2021/01/17 08:04:16;;;;;;;23.27;10.97;;;;;;;-15.14;100.00;99845.75;1740180;82;21655;-67
2021/01/17 08:06:49;;;;;;;17.13;6.63;;;;;;;-15.03;100.00;99841.77;1740166;82;21517;-69
2021/01/17 08:09:19;;;;;;;8.33;4.73;;;;;;;-14.90;100.00;99850.28;1740102;82;22010;-66
2021/01/17 08:11:55;;;;;;;11.90;6.97;;;;;;;-14.78;100.00;99841.47;1770418;80;22009;-67
2021/01/17 08:14:29;;;;;;;12.23;4.43;;;;;;;-14.70;100.00;99835.77;1760660;81;22202;-67
2021/01/17 08:17:19;;;;;;;10.33;3.93;;;;;;;-14.70;100.00;99835.77;1760570;81;21489;-67
2021/01/17 08:19:56;;;;;;;13.72;5.50;;;;;;;-14.60;100.00;99829.59;1830106;75;27736;-67
2021/01/17 08:22:30;;;;;;;3.83;3.40;;;;;;;-14.58;100.00;99838.66;1828616;78;20965;-67
2021/01/17 08:25:05;;;;;;;4.10;2.57;;;;;;;-14.51;100.00;99838.97;1838234;78;21662;-67
2021/01/17 08:27:39;;;;;;;4.70;2.17;;;;;;;-14.38;100.00;99838.37;1838017;78;21585;-68
2021/01/17 08:30:19;;;;;;;5.17;3.77;;;;;;;-14.26;100.00;99838.20;1838132;78;22124;-69
2021/01/17 08:32:51;;;;;;;4.97;3.07;;;;;;;-14.32;100.00;99835.70;1838054;78;21651;-68
2021/01/17 08:35:25;;;;;;;11.53;5.33;;;;;;;-14.37;100.00;99838.80;1765757;81;22073;-68
2021/01/17 08:38:15;;;;;;;4.97;3.83;;;;;;;-14.37;100.00;99837.50;1737277;81;22345;-67
2021/01/17 08:40:54;;;;;;;11.43;5.23;;;;;;;-14.22;100.00;99835.13;1730869;83;21810;-67
2021/01/17 08:43:33;;;;;;;4.87;4.27;;;;;;;-13.96;100.00;99827.81;1730909;83;21716;-68
2021/01/17 08:46:08;;;;;;;4.17;3.07;;;;;;;-13.71;100.00;99823.98;1852614;76;22750;-67
2021/01/17 08:48:36;;;;;;;8.13;2.73;;;;;;;-13.69;100.00;99832.61;1822832;77;20874;-68
2021/01/17 08:51:19;;;;;;;2.40;2.20;;;;;;;-13.61;100.00;99835.52;1855776;77;22243;-67
2021/01/17 08:53:48;;;;;;;5.43;2.87;;;;;;;-13.60;100.00;99828.11;1855919;77;21594;-67
2021/01/17 08:56:19;;;;;;;3.40;3.00;;;;;;;-13.76;100.00;99850.89;1823243;77;21673;-67
2021/01/17 08:58:53;;;;;;;3.87;3.20;;;;;;;-13.93;100.00;99845.12;1855618;77;21689;-69
2021/01/17 09:01:22;;;;;;;4.20;2.90;;;;;;;-13.97;100.00;99837.80;1752480;81;21730;-69
2021/01/17 09:03:53;;;;;;;6.03;3.03;;;;;;;-13.93;100.00;99837.73;1750870;81;22366;-71
2021/01/17 09:06:26;;;;;;;4.23;3.23;;;;;;;-13.79;100.00;99836.66;1750498;81;21755;-68
2021/01/17 09:09:00;;;;;;;9.43;4.43;;;;;;;-13.55;100.00;99838.90;1748722;81;21888;-67
2021/01/17 09:11:39;;;;;;;7.87;3.53;;;;;;;-13.28;100.00;99828.42;1747925;81;21753;-69
2021/01/17 09:14:29;;;;;;;7.97;4.53;;;;;;;-13.07;100.00;99828.48;1611813;88;21167;-69
2021/01/17 09:17:08;;;;;;;16.77;8.23;;;;;;;-12.93;100.00;99827.78;1612230;88;21868;-69
2021/01/17 09:19:37;;;;;;;7.77;4.03;;;;;;;-12.76;100.00;99830.07;1588705;90;21167;-71
2021/01/17 09:22:07;;;;;;;8.80;3.27;;;;;;;-12.57;100.00;99827.08;1588891;90;21068;-70
2021/01/17 09:24:37;;;;;;;6.50;3.10;;;;;;;-12.39;100.00;99840.17;1589055;90;21067;-70
2021/01/17 09:27:08;;;;;;;8.37;4.33;;;;;;;-12.23;100.00;99845.04;1590822;90;22321;-69
2021/01/17 09:29:38;;;;;;;7.23;4.60;;;;;;;-12.15;100.00;99837.50;1590965;90;22538;-69
2021/01/17 09:32:20;;;;;;;7.60;4.70;;;;;;;-11.99;100.00;99832.80;1823324;77;22748;-70
2021/01/17 09:34:48;;;;;;;10.00;3.90;;;;;;;-12.08;100.00;99826.89;1805296;78;21577;-69
2021/01/17 09:37:19;;;;;;;7.80;3.83;;;;;;;-12.02;100.00;99827.22;1801032;78;22166;-72
2021/01/17 09:39:53;;;;;;;8.70;3.83;;;;;;;-11.98;100.00;99825.41;1791673;80;20922;-69
2021/01/17 09:42:24;;;;;;;4.63;2.83;;;;;;;-11.94;100.00;99819.21;1791952;78;21422;-69
2021/01/17 09:44:55;;;;;;;13.40;5.17;;;;;;;-11.80;100.00;99804.52;1791767;80;21014;-71
2021/01/17 09:47:24;;;;;;;10.93;6.33;;;;;;;-11.79;100.00;99803.19;1791670;80;21065;-70
2021/01/17 09:49:53;;;;;;;11.37;4.93;;;;;;;-11.93;100.00;99807.45;1791792;80;21202;-69
2021/01/17 09:52:23;;;;;;;8.53;5.00;;;;;;;-12.05;100.00;99807.73;1791541;80;20999;-70
2021/01/17 09:54:53;;;;;;;8.43;5.00;;;;;;;-12.08;100.00;99810.40;1791546;80;20987;-69
2021/01/17 09:57:26;;;;;;;10.17;5.17;;;;;;;-12.07;100.00;99810.37;1791736;80;20963;-71
2021/01/17 09:59:54;;;;;;;;;;;;;;;-12.13;100.00;99804.42;1794422;80;21010;-69
2021/01/17 10:02:24;;;;;;;2.90;2.53;;;;;;;-12.14;100.00;99793.16;1791917;80;22204;-69
2021/01/17 10:04:53;;;;;;;12.07;4.53;;;;;;;-12.18;100.00;99799.34;1791728;80;21571;-71
2021/01/17 10:07:22;;;;;;;4.53;2.83;;;;;;;-12.39;100.00;99794.15;1791790;80;20974;-69
2021/01/17 10:09:53;;;;;;;6.30;3.30;;;;;;;-12.35;100.00;99791.88;1787000;80;20994;-70
2021/01/17 10:14:53;;;;;;;16.37;7.43;;;;;;;-12.15;100.00;99781.00;1721281;83;21801;-70
2021/01/17 10:17:22;;;;;;;14.57;7.00;;;;;;;-12.16;100.00;99785.82;1729631;83;21016;-70
2021/01/17 10:19:51;;;;;;;6.80;5.20;;;;;;;-12.31;100.00;99787.00;1729678;83;21126;-69
2021/01/17 10:22:19;;;;;;;11.47;4.47;;;;;;;-12.42;100.00;99785.94;1729891;83;21503;-70
2021/01/17 10:24:47;;;;;;;9.30;4.97;;;;;;;-12.47;100.00;99779.11;1729670;83;20957;-70
2021/01/17 10:27:17;;;;;;;9.57;5.30;;;;;;;-12.54;100.00;99776.23;1729703;83;21368;-69
2021/01/17 10:29:45;;;;;;;17.07;7.50;;;;;;;-12.62;100.00;99781.16;1729717;83;20969;-70
2021/01/17 10:32:15;;;;;;;9.90;4.53;;;;;;;-12.64;100.00;99784.25;1719182;82;20959;-69
2021/01/17 10:34:46;;;;;;;25.67;5.47;;;;;;;-12.73;100.00;99783.11;1716926;83;22344;-69
2021/01/17 10:37:23;;;;;;;17.87;8.63;;;;;;;-12.71;100.00;99768.76;1852542;76;23315;-69
2021/01/17 10:39:53;;;;;;;18.37;6.43;;;;;;;-12.83;100.00;99772.04;1779125;80;20904;-71
2021/01/17 10:42:30;;;;;;;14.93;6.53;;;;;;;-12.82;100.00;99771.16;1856168;77;21350;-69
2021/01/17 10:45:07;;;;;;;18.53;9.13;;;;;;;-12.78;100.00;99773.27;1855989;77;21028;-70
2021/01/17 10:48:07;;;;;;;14.80;7.90;;;;;;;-12.68;100.00;99765.64;1742180;82;21586;-70
2021/01/17 10:50:55;;;;;;;10.60;6.43;;;;;;;-12.58;100.00;99768.92;1742369;82;21609;-71
2021/01/17 10:53:46;;;;;;;16.47;8.23;;;;;;;-12.48;100.00;99769.57;1846008;76;22016;-70
2021/01/17 10:56:19;;;;;;;7.80;4.73;;;;;;;-12.49;100.00;99762.21;1766460;81;21017;-68
2021/01/17 10:58:57;;;;;;;10.80;5.43;;;;;;;-12.45;100.00;99762.55;1891249;76;22793;-69
2021/01/17 11:01:32;;;;;;;22.97;9.67;;;;;;;-12.56;100.00;99765.84;1862307;77;20999;-69
2021/01/17 11:04:01;;;;;;;16.57;6.08;;;;;;;-12.76;100.00;99758.88;1862260;77;21913;-70
2021/01/17 11:06:29;;;;;;;11.73;7.23;;;;;;;-12.94;100.00;99772.71;1862123;77;20995;-69
2021/01/17 11:08:59;;;;;;;6.47;4.67;;;;;;;-13.06;100.00;99752.98;1862160;77;20942;-69
2021/01/17 11:14:02;;;;;;;10.70;3.87;;;;;;;-13.17;100.00;99752.34;1795040;79;21051;-71
2021/01/17 11:16:40;;;;;;;11.77;4.53;;;;;;;-13.19;100.00;99756.69;1781844;79;22110;-69
2021/01/17 11:19:12;;;;;;;6.70;3.67;;;;;;;-13.20;100.00;99755.84;1778907;80;21084;-69
2021/01/17 11:21:47;;;;;;;2.40;2.17;;;;;;;-13.21;100.00;99750.24;1891129;76;22193;-69
2021/01/17 11:24:17;;;;;;;24.33;9.17;;;;;;;-13.39;100.00;99753.20;1853273;77;20982;-70
2021/01/17 11:26:47;;;;;;;13.37;8.27;;;;;;;-13.39;100.00;99753.20;1862171;77;22291;-69
2021/01/17 11:29:15;;;;;;;12.37;5.67;;;;;;;-13.34;100.00;99740.13;1861897;77;21060;-70
2021/01/17 11:31:44;;;;;;;13.60;5.37;;;;;;;-13.28;100.00;99747.77;1862116;77;21365;-69
2021/01/17 11:34:18;;;;;;;4.57;2.77;;;;;;;-13.33;100.00;99745.30;1861985;77;20955;-70
2021/01/17 11:36:47;;;;;;;5.93;3.63;;;;;;;-13.33;100.00;99745.30;1803468;79;20989;-70
2021/01/17 11:39:20;;;;;;;7.30;4.27;;;;;;;-13.43;100.00;99747.20;1743350;81;21630;-69
2021/01/17 11:41:49;;;;;;;14.23;5.40;;;;;;;-13.44;100.00;99748.07;1754560;81;21681;-69
2021/01/17 11:44:21;;;;;;;7.80;5.13;;;;;;;-13.38;100.00;99753.62;1803363;79;22118;-71
2021/01/17 11:46:49;;;;;;;9.10;3.87;;;;;;;-13.46;100.00;99743.80;1729901;81;21764;-70